Time;durP1;ratioP1;P1;durP2;ratioP2;P2;SDS_P1;SDS_P2;PMS_P1;PMS_P2;Temp;Humidity;BMP_temperature;BMP_pressure;BME280_temperature;BME280_humidity;BME280_pressure;Samples;Min_cycle;Max_cycle;Signal;HPM_P1;HPM_P2
2024/01/27 00:01:32;;;;;;;4.07;1.58;;;;;;;20.88;40.87;103322.06;4909011;28;97431;-73
2024/01/27 00:03:57;;;;;;;3.08;1.50;;;;;;;20.88;40.70;103321.19;4909224;28;96836;-73
2024/01/27 00:06:23;;;;;;;2.22;0.93;;;;;;;20.88;40.93;103326.50;4921891;28;96971;-73
2024/01/27 00:08:48;;;;;;;3.47;1.42;;;;;;;20.88;40.46;103331.81;4907033;28;96957;-72
2024/01/27 00:11:13;;;;;;;3.55;1.00;;;;;;;20.88;40.75;103326.50;4907227;28;101663;-73
2024/01/27 00:13:39;;;;;;;3.55;1.13;;;;;;;20.88;41.00;103329.16;4917048;28;109045;-73
2024/01/27 00:16:04;;;;;;;3.35;1.25;;;;;;;20.88;40.86;103337.13;4919899;28;120944;-73
2024/01/27 00:18:30;;;;;;;2.85;1.58;;;;;;;20.87;40.99;103337.97;4927784;28;97274;-72
2024/01/27 00:20:55;;;;;;;2.22;0.77;;;;;;;20.87;41.05;103343.28;4923943;28;125847;-73
2024/01/27 00:23:21;;;;;;;3.63;1.55;;;;;;;20.87;41.01;103341.53;4923436;28;98413;-73
2024/01/27 00:25:46;;;;;;;2.70;1.45;;;;;;;20.86;40.64;103346.81;4924955;28;96788;-72
2024/01/27 00:28:11;;;;;;;3.60;1.80;;;;;;;20.87;41.03;103353.88;4919014;28;96858;-73
2024/01/27 00:30:37;;;;;;;2.63;0.77;;;;;;;20.87;40.66;103351.22;4908968;28;97547;-73
2024/01/27 00:33:02;;;;;;;2.45;1.40;;;;;;;20.86;40.75;103354.78;4916305;28;108419;-73
2024/01/27 00:35:27;;;;;;;3.17;0.93;;;;;;;20.86;40.86;103357.44;4908906;28;96774;-73
2024/01/27 00:37:53;;;;;;;3.53;1.50;;;;;;;20.87;40.68;103359.19;4925809;28;121282;-73
2024/01/27 00:40:18;;;;;;;3.03;1.33;;;;;;;20.86;41.00;103352.13;4925531;28;125620;-72
2024/01/27 00:42:44;;;;;;;3.58;1.42;;;;;;;20.86;40.61;103355.66;4927379;28;96781;-73
2024/01/27 00:45:09;;;;;;;3.25;1.70;;;;;;;20.85;40.89;103353.00;4926237;28;105140;-73
2024/01/27 00:47:34;;;;;;;3.35;0.98;;;;;;;20.85;40.80;103355.63;4927182;28;97318;-73
2024/01/27 00:50:00;;;;;;;2.75;1.33;;;;;;;20.85;40.79;103353.00;4925366;28;125383;-73
2024/01/27 00:52:25;;;;;;;3.50;1.65;;;;;;;20.86;40.64;103357.44;4923791;28;97638;-73
2024/01/27 00:54:51;;;;;;;3.53;1.88;;;;;;;20.85;40.75;103358.28;4926045;28;97372;-72
2024/01/27 00:57:16;;;;;;;3.35;1.08;;;;;;;20.85;41.09;103353.88;4924382;28;96969;-73
2024/01/27 00:59:41;;;;;;;4.50;1.70;;;;;;;20.85;40.79;103355.63;4907395;28;98883;-72
2024/01/27 01:02:07;;;;;;;2.80;1.38;;;;;;;20.85;40.95;103363.59;4927197;28;97170;-73
2024/01/27 01:04:32;;;;;;;2.42;0.88;;;;;;;20.85;40.62;103359.19;4924966;28;102303;-73
2024/01/27 01:06:58;;;;;;;2.85;1.00;;;;;;;20.84;40.95;103362.72;4925174;28;97250;-73
2024/01/27 01:09:23;;;;;;;2.42;1.20;;;;;;;20.85;40.92;103364.47;4928418;28;97488;-73
2024/01/27 01:11:48;;;;;;;3.67;1.10;;;;;;;20.84;40.81;103361.84;4929452;28;97169;-73
2024/01/27 01:14:14;;;;;;;2.75;0.90;;;;;;;20.84;40.91;103356.53;4927670;28;122755;-72
2024/01/27 01:16:40;;;;;;;2.80;1.38;;;;;;;20.84;40.68;103361.84;4916053;28;96695;-73
2024/01/27 01:19:05;;;;;;;3.67;1.08;;;;;;;20.85;40.85;103368.91;4926146;28;104713;-72
2024/01/27 01:21:31;;;;;;;3.42;1.30;;;;;;;20.83;40.65;103355.63;4928467;28;123481;-73
2024/01/27 01:23:56;;;;;;;3.42;0.93;;;;;;;20.84;40.96;103356.53;4911591;28;97320;-73
2024/01/27 01:26:21;;;;;;;3.90;1.63;;;;;;;20.83;40.97;103360.94;4926242;28;119378;-73
2024/01/27 01:28:47;;;;;;;2.85;1.85;;;;;;;20.83;40.80;103360.94;4926754;28;101847;-73
2024/01/27 01:31:12;;;;;;;3.10;1.15;;;;;;;20.83;40.68;103358.28;4924442;28;99224;-73
2024/01/27 01:33:37;;;;;;;2.67;1.48;;;;;;;20.83;41.00;103365.34;4926908;28;121623;-72
2024/01/27 01:36:03;;;;;;;3.00;1.10;;;;;;;20.82;40.76;103352.94;4928299;28;97148;-73
2024/01/27 01:38:28;;;;;;;2.72;1.50;;;;;;;20.82;40.80;103353.88;4929780;28;97595;-73
2024/01/27 01:40:54;;;;;;;3.60;1.30;;;;;;;20.82;40.79;103363.56;4926602;28;97149;-73
2024/01/27 01:43:19;;;;;;;2.00;1.05;;;;;;;20.81;40.87;103357.38;4926740;28;96747;-72
2024/01/27 01:45:44;;;;;;;2.35;0.85;;;;;;;20.81;41.01;103361.81;4925573;28;121814;-73
2024/01/27 01:48:10;;;;;;;2.83;1.42;;;;;;;20.82;41.09;103368.88;4928579;28;127010;-73
2024/01/27 01:50:36;;;;;;;2.67;1.73;;;;;;;20.81;40.67;103372.41;4924609;28;97396;-70
2024/01/27 01:53:01;;;;;;;2.85;1.60;;;;;;;20.80;40.78;103368.88;4928574;28;97354;-71
2024/01/27 01:55:27;;;;;;;2.45;0.82;;;;;;;20.82;40.68;103374.16;4907549;28;97070;-71
2024/01/27 01:57:53;;;;;;;2.78;1.08;;;;;;;20.81;40.80;103378.59;4910810;28;97633;-71
2024/01/27 02:00:19;;;;;;;2.38;0.93;;;;;;;20.81;40.73;103370.63;4912397;28;96994;-71
2024/01/27 02:02:48;;;;;;;3.13;1.40;;;;;;;20.80;40.61;103367.97;4911566;28;96716;-71
2024/01/27 02:05:14;;;;;;;2.38;0.98;;;;;;;20.81;40.82;103377.72;4922416;28;96979;-71
2024/01/27 02:07:40;;;;;;;3.63;1.25;;;;;;;20.81;40.71;103367.09;4922551;28;99582;-71
2024/01/27 02:10:15;;;;;;;2.33;1.02;;;;;;;20.81;40.91;103369.75;4915763;28;97324;-71
2024/01/27 02:12:40;;;;;;;;;;;;;;;20.73;40.92;103377.66;4913309;28;97102;-71
2024/01/27 02:15:10;;;;;;;3.47;1.42;;;;;;;20.74;40.85;103368.81;4910892;28;97050;-71
2024/01/27 02:17:36;;;;;;;2.05;1.08;;;;;;;20.76;40.63;103374.13;4912531;28;99353;-71
2024/01/27 02:20:01;;;;;;;4.35;1.27;;;;;;;20.76;40.72;103356.44;4910742;28;96894;-71
2024/01/27 02:22:27;;;;;;;3.47;1.50;;;;;;;20.77;40.90;103358.22;4912947;28;96843;-71
2024/01/27 02:24:52;;;;;;;2.92;1.25;;;;;;;20.77;40.60;103371.50;4922291;28;121806;-71
2024/01/27 02:27:17;;;;;;;2.40;1.50;;;;;;;20.77;40.75;103374.16;4913691;28;126788;-70
2024/01/27 02:29:43;;;;;;;2.75;1.35;;;;;;;20.77;40.82;103371.50;4912148;28;107480;-71
2024/01/27 02:32:09;;;;;;;2.40;1.08;;;;;;;20.77;40.93;103360.88;4915723;28;97162;-71
2024/01/27 02:34:34;;;;;;;2.30;1.33;;;;;;;20.78;40.67;103378.56;4911773;28;122334;-71
2024/01/27 02:36:59;;;;;;;3.83;1.55;;;;;;;20.77;40.59;103371.50;4914393;28;122977;-70
2024/01/27 02:39:25;;;;;;;2.78;1.45;;;;;;;20.77;40.98;103360.00;4923268;28;96847;-71
2024/01/27 02:41:50;;;;;;;2.65;1.35;;;;;;;20.77;40.78;103368.84;4906978;28;97528;-71
2024/01/27 02:44:16;;;;;;;3.53;1.65;;;;;;;20.77;40.63;103371.50;4914867;28;120248;-71
2024/01/27 02:46:43;;;;;;;3.53;1.58;;;;;;;20.76;41.04;103375.00;4895696;28;126946;-71
2024/01/27 02:49:09;;;;;;;2.45;1.10;;;;;;;20.77;40.78;103381.22;4931487;28;96724;-71
2024/01/27 02:51:34;;;;;;;2.45;1.48;;;;;;;20.77;40.84;103375.91;4924426;28;97002;-71
2024/01/27 02:53:59;;;;;;;2.70;1.20;;;;;;;20.76;40.80;103388.28;4920759;28;122783;-71
2024/01/27 02:56:25;;;;;;;3.42;1.00;;;;;;;20.76;40.77;103382.97;4910976;28;126807;-71
2024/01/27 02:58:50;;;;;;;2.80;1.35;;;;;;;20.77;40.63;103381.22;4916085;28;97109;-71
2024/01/27 03:01:15;;;;;;;2.92;1.77;;;;;;;20.76;40.93;103390.91;4915396;28;97193;-71
2024/01/27 03:03:41;;;;;;;2.13;0.95;;;;;;;20.77;40.56;103392.72;4914151;28;121648;-71
2024/01/27 03:06:06;;;;;;;3.65;1.10;;;;;;;20.77;40.79;103373.28;4913723;28;103003;-71
2024/01/27 03:08:31;;;;;;;3.25;1.58;;;;;;;20.77;40.71;103378.56;4913585;28;108782;-71
2024/01/27 03:10:57;;;;;;;2.42;1.50;;;;;;;20.77;40.49;103373.28;4913211;28;110312;-71
2024/01/27 03:13:22;;;;;;;2.40;1.58;;;;;;;20.77;40.60;103376.81;4917914;28;96843;-71
2024/01/27 03:15:49;;;;;;;3.28;1.20;;;;;;;20.77;40.60;103365.31;4930564;28;96731;-71
2024/01/27 03:18:14;;;;;;;3.67;1.52;;;;;;;20.75;40.43;103367.94;4917835;28;97156;-71
2024/01/27 03:20:39;;;;;;;3.10;1.02;;;;;;;20.76;40.70;103369.69;4906352;28;122214;-72
2024/01/27 03:23:05;;;;;;;3.25;1.17;;;;;;;20.75;40.56;103359.97;4912621;28;97138;-71
2024/01/27 03:25:30;;;;;;;2.83;1.33;;;;;;;20.75;40.91;103354.69;4907349;28;98565;-71
2024/01/27 03:27:55;;;;;;;3.20;1.10;;;;;;;20.74;40.91;103360.84;4910059;28;97726;-71
2024/01/27 03:30:21;;;;;;;2.63;1.60;;;;;;;20.75;40.81;103361.72;4912127;28;96842;-70
2024/01/27 03:32:46;;;;;;;2.67;1.58;;;;;;;20.74;40.75;103360.84;4912779;28;96870;-71
2024/01/27 03:35:11;;;;;;;3.83;1.73;;;;;;;20.75;40.59;103373.25;4911846;28;119030;-71
2024/01/27 03:37:37;;;;;;;2.75;1.38;;;;;;;20.74;40.86;103384.72;4922246;28;125539;-71
2024/01/27 03:40:02;;;;;;;3.40;0.93;;;;;;;20.73;40.77;103375.88;4907209;28;97004;-71
2024/01/27 03:42:28;;;;;;;2.60;1.17;;;;;;;20.74;40.75;103374.09;4912258;28;97079;-71
2024/01/27 03:44:53;;;;;;;2.47;1.10;;;;;;;20.73;40.77;103382.97;4912732;28;96791;-71
2024/01/27 03:47:20;;;;;;;3.80;1.50;;;;;;;20.73;40.88;103377.66;4915500;28;96820;-71
2024/01/27 03:49:45;;;;;;;3.42;1.40;;;;;;;20.72;40.61;103384.69;4921989;28;97049;-72
2024/01/27 03:52:11;;;;;;;2.63;1.10;;;;;;;20.72;40.76;103386.47;4914690;28;122371;-71
2024/01/27 03:54:38;;;;;;;2.45;1.45;;;;;;;20.73;40.47;103382.97;4927260;28;122196;-71
2024/01/27 03:57:04;;;;;;;3.53;1.60;;;;;;;20.72;40.79;103390.00;4907421;28;97264;-71
2024/01/27 03:59:29;;;;;;;2.67;1.40;;;;;;;20.71;40.58;103388.25;4919327;28;96845;-71
2024/01/27 04:01:55;;;;;;;3.25;1.55;;;;;;;20.72;40.73;103391.78;4925368;28;98289;-71
2024/01/27 04:04:20;;;;;;;3.63;1.00;;;;;;;20.72;40.72;103397.06;4927365;28;97901;-71
2024/01/27 04:06:46;;;;;;;2.53;1.60;;;;;;;20.72;40.56;103399.72;4920121;28;112410;-71
2024/01/27 04:09:11;;;;;;;3.20;1.13;;;;;;;20.71;40.48;103397.94;4924955;28;108783;-71
2024/01/27 04:11:37;;;;;;;2.70;1.40;;;;;;;20.71;40.82;103389.97;4926844;28;121814;-71
2024/01/27 04:14:04;;;;;;;3.58;1.52;;;;;;;20.72;40.55;103397.06;4927051;28;96750;-71
2024/01/27 04:16:30;;;;;;;3.53;1.88;;;;;;;20.71;40.49;103397.94;4927865;28;97490;-70
2024/01/27 04:18:56;;;;;;;3.38;1.10;;;;;;;20.71;40.56;103396.19;4907219;28;102865;-71
2024/01/27 04:21:21;;;;;;;2.63;1.63;;;;;;;20.71;40.65;103397.94;4921678;28;96807;-71
2024/01/27 04:23:47;;;;;;;3.65;1.85;;;;;;;20.70;40.40;103405.00;4920082;28;97576;-71
2024/01/27 04:26:12;;;;;;;3.92;1.73;;;;;;;20.70;40.59;103401.47;4927746;28;97219;-71
2024/01/27 04:28:38;;;;;;;1.85;1.02;;;;;;;20.69;40.73;103408.53;4927003;28;98109;-71
2024/01/27 04:31:04;;;;;;;4.15;1.17;;;;;;;20.70;40.49;103401.47;4917877;28;122476;-71
2024/01/27 04:33:29;;;;;;;2.00;0.82;;;;;;;20.70;40.75;103405.00;4911156;28;97630;-71
2024/01/27 04:35:55;;;;;;;3.40;1.95;;;;;;;20.70;40.52;103398.81;4926538;28;97558;-71
2024/01/27 04:38:20;;;;;;;2.50;1.50;;;;;;;20.69;40.75;103397.91;4919720;28;96776;-70
2024/01/27 04:40:45;;;;;;;2.85;0.95;;;;;;;20.69;40.77;103403.22;4920453;28;122189;-72
2024/01/27 04:43:16;;;;;;;2.38;1.58;;;;;;;20.69;40.33;103399.69;4918928;28;97298;-71
2024/01/27 04:45:41;;;;;;;2.83;1.40;;;;;;;20.69;40.53;103403.22;4916502;28;97692;-71
2024/01/27 04:48:06;;;;;;;3.05;1.50;;;;;;;20.68;40.55;103403.22;4919435;28;97036;-70
2024/01/27 04:50:32;;;;;;;2.85;1.33;;;;;;;20.69;40.70;103407.63;4929527;28;96908;-71
2024/01/27 04:52:57;;;;;;;2.85;1.05;;;;;;;20.68;40.58;103405.88;4910349;28;125662;-71
2024/01/27 04:55:22;;;;;;;3.42;1.38;;;;;;;20.67;40.88;103397.00;4921238;28;122766;-71
2024/01/27 04:57:48;;;;;;;3.65;1.67;;;;;;;20.67;40.23;103399.66;4916555;28;96897;-71
2024/01/27 05:00:14;;;;;;;3.10;1.42;;;;;;;20.68;40.48;103409.41;4927070;28;120194;-71
2024/01/27 05:02:43;;;;;;;3.05;1.77;;;;;;;20.68;40.90;103397.94;4933898;28;97577;-71
2024/01/27 05:05:08;;;;;;;2.55;1.20;;;;;;;20.68;40.62;103414.72;4912371;28;97219;-71
2024/01/27 05:07:34;;;;;;;3.60;1.20;;;;;;;20.66;40.75;103408.50;4911613;28;97321;-71
2024/01/27 05:10:00;;;;;;;2.90;1.27;;;;;;;20.66;40.31;103403.22;4924645;28;96988;-71
2024/01/27 05:12:25;;;;;;;3.00;1.10;;;;;;;20.67;40.56;103406.75;4920979;28;98109;-71
2024/01/27 05:14:51;;;;;;;3.05;1.05;;;;;;;20.66;40.61;103404.94;4928303;28;96822;-71
2024/01/27 05:17:16;;;;;;;3.70;1.48;;;;;;;20.66;40.38;103405.84;4911869;28;96637;-71
2024/01/27 05:19:42;;;;;;;2.28;1.00;;;;;;;20.65;40.57;103398.75;4911508;28;97465;-71
2024/01/27 05:22:07;;;;;;;2.30;1.30;;;;;;;20.66;40.34;103399.63;4913459;28;97428;-71
2024/01/27 05:24:33;;;;;;;2.85;1.40;;;;;;;20.66;40.62;103391.69;4913452;28;124486;-71
2024/01/27 05:26:59;;;;;;;3.85;1.63;;;;;;;20.67;40.34;103388.19;4914318;28;96716;-71
2024/01/27 05:29:25;;;;;;;2.47;1.10;;;;;;;20.66;40.27;103389.94;4920263;28;97895;-71
2024/01/27 05:31:51;;;;;;;3.08;1.20;;;;;;;20.66;40.45;103391.69;4927955;28;97421;-71
2024/01/27 05:34:16;;;;;;;3.20;1.23;;;;;;;20.65;40.61;103384.63;4931822;28;111841;-71
2024/01/27 05:36:42;;;;;;;2.13;0.95;;;;;;;20.65;40.72;103384.63;4924754;28;96951;-71
2024/01/27 05:39:08;;;;;;;2.13;1.10;;;;;;;20.65;40.29;103387.28;4926557;28;96916;-71
2024/01/27 05:41:33;;;;;;;3.72;1.10;;;;;;;20.64;40.50;103383.75;4913190;28;97229;-70
2024/01/27 05:43:59;;;;;;;2.88;1.02;;;;;;;20.64;40.68;103378.44;4930268;28;96821;-71
2024/01/27 05:46:25;;;;;;;3.70;1.70;;;;;;;20.64;40.65;103382.84;4912088;28;120676;-71
2024/01/27 05:48:53;;;;;;;3.65;1.98;;;;;;;20.65;40.33;103380.19;4927222;28;96958;-71
2024/01/27 05:51:18;;;;;;;3.38;1.10;;;;;;;20.63;40.66;103384.59;4918551;28;97623;-71
2024/01/27 05:53:44;;;;;;;2.83;1.10;;;;;;;20.63;40.33;103375.75;4928733;28;97758;-71
2024/01/27 05:56:09;;;;;;;3.03;1.52;;;;;;;20.62;40.43;103382.81;4929303;28;120977;-71
2024/01/27 05:58:34;;;;;;;3.05;1.20;;;;;;;20.64;40.26;103388.13;4928420;28;116035;-71
2024/01/27 06:01:00;;;;;;;3.25;1.20;;;;;;;20.63;40.63;103383.72;4928351;28;125713;-71
2024/01/27 06:03:26;;;;;;;3.63;1.60;;;;;;;20.62;40.59;103388.13;4905106;28;126575;-71
2024/01/27 06:05:51;;;;;;;3.40;1.17;;;;;;;20.63;40.62;103386.38;4929142;28;97222;-71
2024/01/27 06:08:18;;;;;;;4.38;1.48;;;;;;;20.63;40.27;103389.91;4929179;28;97302;-71
2024/01/27 06:10:43;;;;;;;3.33;1.42;;;;;;;20.63;40.22;103389.03;4912017;28;97566;-71
2024/01/27 06:13:08;;;;;;;2.50;1.05;;;;;;;20.61;40.25;103389.00;4908289;28;116313;-71
2024/01/27 06:15:34;;;;;;;2.50;1.05;;;;;;;20.62;40.54;103389.88;4929644;28;96790;-71
2024/01/27 06:17:59;;;;;;;3.00;1.52;;;;;;;20.62;40.50;103392.53;4910719;28;98912;-71
2024/01/27 06:20:25;;;;;;;2.60;1.10;;;;;;;20.62;40.32;103392.53;4929510;28;97024;-71
2024/01/27 06:22:52;;;;;;;3.53;1.58;;;;;;;20.60;40.25;103386.28;4911844;28;97467;-71
2024/01/27 06:25:17;;;;;;;2.17;0.98;;;;;;;20.61;40.42;103386.34;4928792;28;96715;-71
2024/01/27 06:27:42;;;;;;;3.35;1.02;;;;;;;20.60;40.33;103392.47;4928628;28;96893;-71
2024/01/27 06:30:09;;;;;;;2.42;1.10;;;;;;;20.60;40.57;103391.59;4927963;28;97516;-71
2024/01/27 06:32:35;;;;;;;2.95;1.42;;;;;;;20.60;40.42;103396.91;4922827;28;97666;-71
2024/01/27 06:35:00;;;;;;;3.75;1.13;;;;;;;20.60;40.34;103407.50;4903687;28;122090;-71
2024/01/27 06:37:25;;;;;;;2.10;1.08;;;;;;;20.60;40.61;103400.44;4920309;28;122143;-71
2024/01/27 06:39:51;;;;;;;3.65;1.85;;;;;;;20.59;40.59;103390.72;4921407;28;112174;-71
2024/01/27 06:42:16;;;;;;;4.03;1.80;;;;;;;20.59;40.38;103398.69;4920823;28;97152;-71
2024/01/27 06:44:41;;;;;;;2.60;1.63;;;;;;;20.59;40.43;103387.16;4933816;28;121990;-71
2024/01/27 06:47:07;;;;;;;2.30;1.15;;;;;;;20.58;40.18;103388.94;4916878;28;102904;-71
2024/01/27 06:49:33;;;;;;;3.65;1.52;;;;;;;20.59;40.52;103393.38;4923454;28;97084;-70
2024/01/27 06:51:59;;;;;;;3.05;1.08;;;;;;;20.58;40.28;103383.63;4892218;28;96902;-71
2024/01/27 06:54:24;;;;;;;2.55;1.35;;;;;;;20.58;40.56;103398.66;4927421;28;96655;-72
2024/01/27 06:56:49;;;;;;;3.17;1.30;;;;;;;20.58;40.58;103396.00;4924877;28;122591;-71
2024/01/27 06:59:14;;;;;;;2.45;1.23;;;;;;;20.57;40.38;103387.16;4920135;28;102714;-71
2024/01/27 07:01:51;;;;;;;3.85;1.83;;;;;;;20.58;40.16;103396.00;4919511;28;125434;-71
2024/01/27 07:04:17;;;;;;;2.72;1.50;;;;;;;20.57;40.32;103400.41;4916011;28;97033;-71
2024/01/27 07:06:42;;;;;;;3.53;1.88;;;;;;;20.57;40.40;103410.13;4917870;28;97436;-71
2024/01/27 07:09:09;;;;;;;3.15;1.05;;;;;;;20.56;40.30;103406.59;4923962;28;97573;-71
2024/01/27 07:11:35;;;;;;;2.80;1.08;;;;;;;20.57;40.08;103416.34;4923413;28;96841;-71
2024/01/27 07:14:02;;;;;;;2.47;1.23;;;;;;;20.58;40.56;103427.81;4927449;28;97188;-72
2024/01/27 07:16:28;;;;;;;3.08;1.63;;;;;;;20.57;40.30;103426.03;4923801;28;97358;-72
2024/01/27 07:18:53;;;;;;;2.83;1.00;;;;;;;20.56;40.54;103426.91;4919284;28;126214;-71
2024/01/27 07:21:18;;;;;;;3.05;1.70;;;;;;;20.57;40.15;103433.97;4920578;28;126506;-72
2024/01/27 07:23:44;;;;;;;2.50;1.58;;;;;;;20.56;40.14;103433.09;4927816;28;104476;-71
2024/01/27 07:26:11;;;;;;;3.17;1.25;;;;;;;20.57;40.50;103442.84;4926805;28;96977;-71
2024/01/27 07:28:36;;;;;;;2.20;1.02;;;;;;;20.56;40.25;103446.34;4919330;28;98154;-71
2024/01/27 07:31:02;;;;;;;2.50;1.20;;;;;;;20.56;40.13;103446.34;4920050;28;97131;-71
2024/01/27 07:33:27;;;;;;;2.85;1.80;;;;;;;20.55;40.47;103452.53;4927156;28;96860;-70
2024/01/27 07:35:52;;;;;;;2.30;1.45;;;;;;;20.56;40.21;103459.63;4927771;28;97176;-71
2024/01/27 07:38:18;;;;;;;2.40;1.23;;;;;;;20.56;40.29;103456.09;4927354;28;97697;-70
2024/01/27 07:40:43;;;;;;;3.70;1.23;;;;;;;20.55;40.21;103449.88;4924789;28;98594;-71
2024/01/27 07:43:08;;;;;;;3.00;1.27;;;;;;;20.54;40.55;103446.34;4921724;28;103684;-71
2024/01/27 07:45:34;;;;;;;3.47;1.63;;;;;;;20.54;40.46;103446.34;4921476;28;115942;-71
2024/01/27 07:47:59;;;;;;;2.83;1.25;;;;;;;20.55;40.35;103460.47;4925759;28;96841;-71
2024/01/27 07:50:25;;;;;;;3.80;1.42;;;;;;;20.56;40.12;103462.25;4909335;28;103114;-69
2024/01/27 07:52:50;;;;;;;3.03;1.67;;;;;;;20.55;40.23;103471.06;4908642;28;98899;-70
2024/01/27 07:55:17;;;;;;;3.20;1.40;;;;;;;20.56;40.16;103477.28;4909475;28;98204;-70
2024/01/27 07:57:42;;;;;;;2.15;1.05;;;;;;;20.55;40.02;103473.72;4915505;28;100014;-70
2024/01/27 08:00:08;;;;;;;3.65;1.23;;;;;;;20.56;40.49;103469.34;4920009;28;97991;-71
2024/01/27 08:02:34;;;;;;;1.95;1.02;;;;;;;20.55;40.22;103463.13;4921786;28;96792;-71
2024/01/27 08:04:59;;;;;;;3.67;1.17;;;;;;;20.56;40.44;103466.69;4917565;28;96967;-71
2024/01/27 08:07:24;;;;;;;2.70;1.30;;;;;;;20.55;40.54;103473.72;4922638;28;96667;-71
2024/01/27 08:09:50;;;;;;;3.22;1.35;;;;;;;20.54;40.09;103466.66;4931945;28;113411;-71
2024/01/27 08:12:15;;;;;;;3.50;1.50;;;;;;;20.54;40.24;103464.00;4925502;28;96609;-71
2024/01/27 08:14:41;;;;;;;4.05;1.35;;;;;;;20.56;40.08;103477.28;4928527;28;97338;-71
2024/01/27 08:17:06;;;;;;;2.80;1.83;;;;;;;20.54;40.47;103466.66;4915452;28;97613;-71
2024/01/27 08:19:31;;;;;;;2.45;1.60;;;;;;;20.56;40.33;103472.00;4926693;28;97147;-71
2024/01/27 08:21:57;;;;;;;4.00;1.50;;;;;;;20.55;40.60;103473.72;4929808;28;115278;-71
2024/01/27 08:24:24;;;;;;;3.22;1.23;;;;;;;20.56;40.34;103466.69;4910962;28;96785;-71
2024/01/27 08:26:50;;;;;;;4.20;1.25;;;;;;;20.56;40.06;103478.19;4929460;28;96876;-71
2024/01/27 08:29:15;;;;;;;3.30;1.42;;;;;;;20.56;40.02;103467.56;4930575;28;96898;-70
2024/01/27 08:31:41;;;;;;;3.05;1.30;;;;;;;20.56;40.08;103464.03;4930431;28;97038;-70
2024/01/27 08:34:06;;;;;;;3.83;1.70;;;;;;;20.55;40.17;103471.06;4931330;28;96890;-69
2024/01/27 08:36:33;;;;;;;3.15;1.30;;;;;;;20.56;40.28;103474.63;4913501;28;96804;-70
2024/01/27 08:38:59;;;;;;;2.85;1.40;;;;;;;20.56;40.17;103472.00;4929279;28;97292;-70
2024/01/27 08:41:25;;;;;;;2.88;1.52;;;;;;;20.57;40.08;103473.75;4931125;28;97166;-71
2024/01/27 08:43:50;;;;;;;3.58;1.70;;;;;;;20.57;40.25;103469.38;4912882;28;97499;-70
2024/01/27 08:46:17;;;;;;;4.40;1.23;;;;;;;20.56;40.39;103478.19;4929428;28;124835;-71
2024/01/27 08:48:43;;;;;;;3.72;1.90;;;;;;;20.56;40.26;103467.56;4912492;28;96856;-71
2024/01/27 08:51:12;;;;;;;2.45;1.15;;;;;;;20.57;39.92;103460.50;4929212;28;97067;-71
2024/01/27 08:53:38;;;;;;;2.22;1.33;;;;;;;20.57;40.00;103455.19;4908830;28;97026;-70
2024/01/27 08:56:04;;;;;;;3.63;1.55;;;;;;;20.56;40.00;103459.63;4928865;28;96806;-71
2024/01/27 08:58:30;;;;;;;3.30;1.45;;;;;;;20.57;39.93;103469.38;4928140;28;98095;-71
2024/01/27 09:00:55;;;;;;;3.92;1.30;;;;;;;20.57;40.20;103461.41;4930230;28;97179;-71
2024/01/27 09:03:21;;;;;;;3.55;1.45;;;;;;;20.57;40.33;103458.75;4919723;28;96875;-70
2024/01/27 09:05:47;;;;;;;3.70;1.95;;;;;;;20.57;40.23;103456.09;4921670;28;124774;-71
2024/01/27 09:08:12;;;;;;;3.00;1.23;;;;;;;20.58;39.93;103464.94;4915838;28;96729;-70
2024/01/27 09:10:38;;;;;;;4.13;1.83;;;;;;;20.58;40.41;103468.47;4929364;28;97161;-71
2024/01/27 09:13:04;;;;;;;3.72;1.40;;;;;;;20.58;39.98;103481.72;4927282;28;97301;-70
2024/01/27 09:15:30;;;;;;;2.83;1.33;;;;;;;20.58;40.06;103483.50;4911285;28;97201;-70
2024/01/27 09:17:55;;;;;;;2.78;1.42;;;;;;;20.59;40.06;103496.78;4911293;28;97877;-71
2024/01/27 09:20:21;;;;;;;2.20;1.17;;;;;;;20.58;40.03;103492.34;4910280;28;97475;-71
2024/01/27 09:22:47;;;;;;;3.03;1.75;;;;;;;20.59;40.33;103490.56;4910207;28;99909;-70
2024/01/27 09:25:13;;;;;;;3.83;1.88;;;;;;;20.59;40.07;103493.22;4911548;28;96952;-71
2024/01/27 09:27:39;;;;;;;3.17;1.13;;;;;;;20.59;40.18;103493.22;4918896;28;97323;-71
2024/01/27 09:30:05;;;;;;;3.10;1.23;;;;;;;20.60;40.34;103497.66;4931377;28;122268;-71
2024/01/27 09:32:31;;;;;;;2.97;1.90;;;;;;;20.59;39.92;103488.81;4912306;28;96993;-71
2024/01/27 09:34:56;;;;;;;3.25;1.40;;;;;;;20.61;39.93;103497.72;4912093;28;97567;-71
2024/01/27 09:37:21;;;;;;;2.60;1.05;;;;;;;20.61;39.90;103499.47;4911061;28;123360;-71
2024/01/27 09:39:47;;;;;;;4.40;1.90;;;;;;;20.62;40.33;103499.47;4911303;28;100037;-71
2024/01/27 09:42:14;;;;;;;2.80;1.67;;;;;;;20.63;40.05;103495.09;4909977;28;97066;-71
2024/01/27 09:44:44;;;;;;;3.00;1.65;;;;;;;20.64;40.02;103499.50;4908190;28;100201;-71
2024/01/27 09:47:11;;;;;;;3.38;1.25;;;;;;;20.63;39.88;103511.88;4910330;28;97270;-71
2024/01/27 09:49:39;;;;;;;4.20;1.17;;;;;;;20.64;40.02;103513.69;4929590;28;97216;-71
2024/01/27 09:52:05;;;;;;;3.88;1.50;;;;;;;20.65;40.08;103514.56;4928260;28;97173;-71
2024/01/27 09:54:30;;;;;;;3.95;2.03;;;;;;;20.65;40.02;103517.22;4929306;28;97478;-71
2024/01/27 09:56:56;;;;;;;3.22;1.15;;;;;;;20.65;40.04;103522.53;4911849;28;97454;-70
2024/01/27 09:59:22;;;;;;;3.88;1.60;;;;;;;20.66;40.25;103527.84;4912223;28;97131;-71
2024/01/27 10:01:48;;;;;;;4.20;1.90;;;;;;;20.66;39.94;103525.19;4910029;28;97535;-70
2024/01/27 10:04:14;;;;;;;3.72;1.50;;;;;;;20.67;39.92;103526.06;4926153;28;97947;-70
2024/01/27 10:06:40;;;;;;;4.00;1.63;;;;;;;20.67;39.78;103526.97;4927643;28;97303;-71
2024/01/27 10:09:06;;;;;;;3.20;1.67;;;;;;;20.69;40.26;103532.28;4911340;28;97689;-70
2024/01/27 10:11:36;;;;;;;2.78;1.50;;;;;;;20.68;39.97;103531.41;4927070;28;96945;-71
2024/01/27 10:14:02;;;;;;;3.97;1.42;;;;;;;20.69;40.31;103529.63;4927726;28;98196;-71
2024/01/27 10:16:28;;;;;;;3.15;1.95;;;;;;;20.69;40.19;103530.50;4911855;28;96904;-71
2024/01/27 10:19:03;;;;;;;2.65;1.33;;;;;;;20.69;40.08;103535.81;4928912;28;96812;-71
2024/01/27 10:21:28;;;;;;;3.53;1.70;;;;;;;20.70;40.23;103536.72;4929133;28;96915;-71
2024/01/27 10:23:54;;;;;;;3.47;1.70;;;;;;;20.69;39.94;103527.88;4928994;28;97926;-70
2024/01/27 10:26:19;;;;;;;2.90;1.33;;;;;;;20.71;39.94;103530.53;4927817;28;126415;-71
2024/01/27 10:28:55;;;;;;;3.15;1.08;;;;;;;20.70;39.74;103540.25;4919967;28;98572;-71
2024/01/27 10:31:26;;;;;;;3.58;1.63;;;;;;;20.71;40.13;103538.50;4921834;28;96764;-70
2024/01/27 10:33:53;;;;;;;3.50;1.80;;;;;;;20.72;39.75;103537.63;4930577;28;96940;-71
2024/01/27 10:36:19;;;;;;;3.60;1.85;;;;;;;20.71;39.88;103534.09;4925502;28;97225;-71
2024/01/27 10:38:44;;;;;;;3.00;1.27;;;;;;;20.72;39.91;103538.53;4911304;28;96789;-70
2024/01/27 10:41:10;;;;;;;4.55;1.88;;;;;;;20.73;40.11;103540.31;4907009;28;96770;-71
2024/01/27 10:43:39;;;;;;;2.78;1.67;;;;;;;20.73;39.63;103539.44;4911107;28;97391;-71
2024/01/27 10:46:06;;;;;;;4.38;2.03;;;;;;;20.73;40.06;103540.31;4914815;28;98661;-71
2024/01/27 10:48:39;;;;;;;3.47;1.92;;;;;;;20.75;39.80;103540.34;4927605;28;96866;-71
2024/01/27 10:51:08;;;;;;;3.08;1.75;;;;;;;20.73;39.87;103532.34;4929042;28;96768;-71
2024/01/27 10:53:35;;;;;;;3.25;1.40;;;;;;;20.75;40.00;103535.03;4928856;28;99153;-70
2024/01/27 10:56:03;;;;;;;4.22;1.40;;;;;;;20.73;39.79;103531.47;4927357;28;98401;-70
2024/01/27 10:58:30;;;;;;;3.15;1.15;;;;;;;20.75;39.97;103536.78;4891367;28;99128;-70
2024/01/27 11:00:56;;;;;;;3.45;1.23;;;;;;;20.73;39.83;103527.06;4897876;28;98871;-70
2024/01/27 11:03:23;;;;;;;3.60;1.30;;;;;;;20.75;39.96;103526.16;4909764;28;99162;-71
2024/01/27 11:05:51;;;;;;;3.08;1.35;;;;;;;20.76;40.11;103517.34;4906942;28;98913;-70
2024/01/27 11:08:18;;;;;;;3.45;1.38;;;;;;;20.74;40.08;103512.03;4907971;28;97039;-70
2024/01/27 11:10:44;;;;;;;3.42;1.92;;;;;;;20.73;39.77;103508.50;4891586;28;97245;-71
2024/01/27 11:13:10;;;;;;;4.00;1.38;;;;;;;20.73;40.06;103508.50;4908752;28;98019;-70
2024/01/27 11:15:36;;;;;;;3.60;1.23;;;;;;;20.73;40.01;103512.91;4907565;28;99109;-71
2024/01/27 11:18:04;;;;;;;3.15;1.27;;;;;;;20.72;40.07;103508.47;4905812;28;119549;-70